sensor_id;sensor_type;location;lat;lon;timestamp;temperature;humidity
18868;DHT22;9563;49.240;9.088;2024-03-08T05:01:13;3.50;99.90
18868;DHT22;9563;49.240;9.088;2024-03-08T05:03:39;3.50;99.90
18868;DHT22;9563;49.240;9.088;2024-03-08T05:06:06;3.50;99.90
18868;DHT22;9563;49.240;9.088;2024-03-08T05:08:33;3.50;99.90
18868;DHT22;9563;49.240;9.088;2024-03-08T05:11:01;3.50;99.90
18868;DHT22;9563;49.240;9.088;2024-03-08T05:13:29;3.50;99.90
18868;DHT22;9563;49.240;9.088;2024-03-08T05:15:56;3.40;99.90
18868;DHT22;9563;49.240;9.088;2024-03-08T05:18:25;3.40;99.90
18868;DHT22;9563;49.240;9.088;2024-03-08T05:20:53;3.40;99.90
18868;DHT22;9563;49.240;9.088;2024-03-08T05:23:20;3.40;99.90
18868;DHT22;9563;49.240;9.088;2024-03-08T05:25:47;3.40;99.90
18868;DHT22;9563;49.240;9.088;2024-03-08T05:28:14;3.30;99.90
18868;DHT22;9563;49.240;9.088;2024-03-08T05:30:41;3.30;99.90
18868;DHT22;9563;49.240;9.088;2024-03-08T05:33:08;3.30;99.90
18868;DHT22;9563;49.240;9.088;2024-03-08T05:35:37;3.40;99.90
18868;DHT22;9563;49.240;9.088;2024-03-08T05:38:04;3.30;99.90
18868;DHT22;9563;49.240;9.088;2024-03-08T05:40:32;3.30;99.90
18868;DHT22;9563;49.240;9.088;2024-03-08T05:42:59;3.30;99.90
18868;DHT22;9563;49.240;9.088;2024-03-08T05:45:26;3.20;99.90
18868;DHT22;9563;49.240;9.088;2024-03-08T05:47:53;3.20;99.90
18868;DHT22;9563;49.240;9.088;2024-03-08T05:50:20;3.30;99.90
18868;DHT22;9563;49.240;9.088;2024-03-08T05:52:49;3.30;99.90
18868;DHT22;9563;49.240;9.088;2024-03-08T05:55:15;3.30;99.90
18868;DHT22;9563;49.240;9.088;2024-03-08T05:57:42;3.30;99.90
18868;DHT22;9563;49.240;9.088;2024-03-08T06:00:11;3.30;99.90
18868;DHT22;9563;49.240;9.088;2024-03-08T06:02:41;3.20;99.90
18868;DHT22;9563;49.240;9.088;2024-03-08T06:05:09;3.30;99.90
18868;DHT22;9563;49.240;9.088;2024-03-08T06:07:36;3.30;99.90
18868;DHT22;9563;49.240;9.088;2024-03-08T06:10:08;3.30;99.90
18868;DHT22;9563;49.240;9.088;2024-03-08T06:12:36;3.30;99.90
18868;DHT22;9563;49.240;9.088;2024-03-08T06:15:06;3.40;99.90
18868;DHT22;9563;49.240;9.088;2024-03-08T06:17:34;3.40;99.90
18868;DHT22;9563;49.240;9.088;2024-03-08T06:20:01;3.40;99.90
18868;DHT22;9563;49.240;9.088;2024-03-08T06:22:28;3.40;99.90
18868;DHT22;9563;49.240;9.088;2024-03-08T06:24:56;3.50;99.90
18868;DHT22;9563;49.240;9.088;2024-03-08T06:27:24;3.50;99.90
18868;DHT22;9563;49.240;9.088;2024-03-08T06:29:51;3.50;99.90
18868;DHT22;9563;49.240;9.088;2024-03-08T06:32:17;3.50;99.90
18868;DHT22;9563;49.240;9.088;2024-03-08T06:34:44;3.50;99.90
18868;DHT22;9563;49.240;9.088;2024-03-08T06:37:11;3.60;99.90
18868;DHT22;9563;49.240;9.088;2024-03-08T06:39:40;3.60;99.90
18868;DHT22;9563;49.240;9.088;2024-03-08T06:42:07;3.60;99.90
18868;DHT22;9563;49.240;9.088;2024-03-08T06:44:37;3.60;99.90
18868;DHT22;9563;49.240;9.088;2024-03-08T06:47:11;3.70;99.90
18868;DHT22;9563;49.240;9.088;2024-03-08T06:49:38;3.80;99.90
18868;DHT22;9563;49.240;9.088;2024-03-08T06:52:05;3.90;99.90
18868;DHT22;9563;49.240;9.088;2024-03-08T06:54:34;4.00;99.90
18868;DHT22;9563;49.240;9.088;2024-03-08T06:57:01;4.10;99.90
18868;DHT22;9563;49.240;9.088;2024-03-08T06:59:29;4.20;99.90
18868;DHT22;9563;49.240;9.088;2024-03-08T07:01:57;4.30;99.90
18868;DHT22;9563;49.240;9.088;2024-03-08T07:04:25;4.40;99.90
18868;DHT22;9563;49.240;9.088;2024-03-08T07:06:55;4.40;99.90
18868;DHT22;9563;49.240;9.088;2024-03-08T07:09:22;4.40;99.90
18868;DHT22;9563;49.240;9.088;2024-03-08T07:11:49;4.50;99.90
18868;DHT22;9563;49.240;9.088;2024-03-08T07:14:21;4.40;99.90
18868;DHT22;9563;49.240;9.088;2024-03-08T07:16:48;4.40;99.90
18868;DHT22;9563;49.240;9.088;2024-03-08T07:19:16;4.50;99.90
18868;DHT22;9563;49.240;9.088;2024-03-08T07:21:43;4.50;99.90
18868;DHT22;9563;49.240;9.088;2024-03-08T07:24:10;4.40;99.90
18868;DHT22;9563;49.240;9.088;2024-03-08T07:26:53;4.40;99.90
18868;DHT22;9563;49.240;9.088;2024-03-08T07:29:21;4.50;99.90
18868;DHT22;9563;49.240;9.088;2024-03-08T07:31:48;4.50;99.90
18868;DHT22;9563;49.240;9.088;2024-03-08T07:34:22;4.50;99.90
18868;DHT22;9563;49.240;9.088;2024-03-08T07:36:49;4.70;99.90
18868;DHT22;9563;49.240;9.088;2024-03-08T07:39:16;4.80;99.90
18868;DHT22;9563;49.240;9.088;2024-03-08T07:41:44;5.00;99.90
18868;DHT22;9563;49.240;9.088;2024-03-08T07:44:11;5.20;99.90
18868;DHT22;9563;49.240;9.088;2024-03-08T07:46:40;5.30;99.90
18868;DHT22;9563;49.240;9.088;2024-03-08T07:49:07;5.40;99.90
18868;DHT22;9563;49.240;9.088;2024-03-08T07:51:37;5.70;99.90
18868;DHT22;9563;49.240;9.088;2024-03-08T07:54:04;5.80;99.90
18868;DHT22;9563;49.240;9.088;2024-03-08T07:56:33;5.90;99.90
18868;DHT22;9563;49.240;9.088;2024-03-08T07:58:59;6.00;99.90
18868;DHT22;9563;49.240;9.088;2024-03-08T08:01:26;6.10;99.90
18868;DHT22;9563;49.240;9.088;2024-03-08T08:03:53;6.30;99.90
18868;DHT22;9563;49.240;9.088;2024-03-08T08:06:22;6.40;99.90
18868;DHT22;9563;49.240;9.088;2024-03-08T08:08:50;6.50;99.90
18868;DHT22;9563;49.240;9.088;2024-03-08T08:11:17;6.70;99.90
18868;DHT22;9563;49.240;9.088;2024-03-08T08:13:44;6.80;99.90
18868;DHT22;9563;49.240;9.088;2024-03-08T08:16:11;7.00;99.90
18868;DHT22;9563;49.240;9.088;2024-03-08T08:18:38;7.30;99.90
18868;DHT22;9563;49.240;9.088;2024-03-08T08:21:06;7.40;99.90
18868;DHT22;9563;49.240;9.088;2024-03-08T08:23:33;7.30;99.90
18868;DHT22;9563;49.240;9.088;2024-03-08T08:26:01;7.40;99.90
18868;DHT22;9563;49.240;9.088;2024-03-08T08:28:30;7.30;99.90
18868;DHT22;9563;49.240;9.088;2024-03-08T08:30:57;7.10;99.90
18868;DHT22;9563;49.240;9.088;2024-03-08T08:33:25;6.80;99.90
18868;DHT22;9563;49.240;9.088;2024-03-08T08:35:52;6.70;99.90
18868;DHT22;9563;49.240;9.088;2024-03-08T08:38:20;6.60;99.90
18868;DHT22;9563;49.240;9.088;2024-03-08T08:40:47;6.40;99.90
18868;DHT22;9563;49.240;9.088;2024-03-08T08:43:15;6.30;99.90
18868;DHT22;9563;49.240;9.088;2024-03-08T08:45:43;6.20;99.90
18868;DHT22;9563;49.240;9.088;2024-03-08T08:48:12;6.10;99.90
18868;DHT22;9563;49.240;9.088;2024-03-08T08:50:39;6.10;99.90
18868;DHT22;9563;49.240;9.088;2024-03-08T08:53:07;6.00;99.90
18868;DHT22;9563;49.240;9.088;2024-03-08T08:55:34;6.00;99.90
18868;DHT22;9563;49.240;9.088;2024-03-08T08:58:01;6.00;99.90
18868;DHT22;9563;49.240;9.088;2024-03-08T09:00:30;6.10;99.90
18868;DHT22;9563;49.240;9.088;2024-03-08T09:02:58;6.10;99.90
18868;DHT22;9563;49.240;9.088;2024-03-08T09:05:25;6.20;99.90
18868;DHT22;9563;49.240;9.088;2024-03-08T09:07:52;6.10;99.90
18868;DHT22;9563;49.240;9.088;2024-03-08T09:10:19;6.10;99.90
18868;DHT22;9563;49.240;9.088;2024-03-08T09:12:46;6.20;99.90
18868;DHT22;9563;49.240;9.088;2024-03-08T09:15:14;6.40;99.90
18868;DHT22;9563;49.240;9.088;2024-03-08T09:17:49;6.40;99.90
18868;DHT22;9563;49.240;9.088;2024-03-08T09:20:16;6.40;99.90
18868;DHT22;9563;49.240;9.088;2024-03-08T09:22:44;6.40;99.90
18868;DHT22;9563;49.240;9.088;2024-03-08T09:25:11;6.40;99.90
18868;DHT22;9563;49.240;9.088;2024-03-08T09:27:38;6.40;99.90
18868;DHT22;9563;49.240;9.088;2024-03-08T09:30:06;6.50;99.90
18868;DHT22;9563;49.240;9.088;2024-03-08T09:32:33;6.50;99.90
18868;DHT22;9563;49.240;9.088;2024-03-08T09:35:01;6.50;99.90
18868;DHT22;9563;49.240;9.088;2024-03-08T09:37:28;6.50;99.90
18868;DHT22;9563;49.240;9.088;2024-03-08T09:39:56;6.60;99.90
18868;DHT22;9563;49.240;9.088;2024-03-08T09:42:24;6.80;99.90
18868;DHT22;9563;49.240;9.088;2024-03-08T09:44:51;6.80;99.90
18868;DHT22;9563;49.240;9.088;2024-03-08T09:47:21;6.70;99.90
18868;DHT22;9563;49.240;9.088;2024-03-08T09:49:48;6.60;99.90
18868;DHT22;9563;49.240;9.088;2024-03-08T09:52:17;6.60;99.90
18868;DHT22;9563;49.240;9.088;2024-03-08T09:54:45;6.70;99.90
18868;DHT22;9563;49.240;9.088;2024-03-08T09:57:12;6.80;99.90
18868;DHT22;9563;49.240;9.088;2024-03-08T09:59:41;6.80;99.90
18868;DHT22;9563;49.240;9.088;2024-03-08T10:02:14;6.90;99.90
18868;DHT22;9563;49.240;9.088;2024-03-08T10:04:42;7.10;99.90
18868;DHT22;9563;49.240;9.088;2024-03-08T10:07:11;7.20;99.90
18868;DHT22;9563;49.240;9.088;2024-03-08T10:09:40;7.30;99.90
18868;DHT22;9563;49.240;9.088;2024-03-08T10:12:12;7.30;99.90
18868;DHT22;9563;49.240;9.088;2024-03-08T10:14:41;7.30;99.90
18868;DHT22;9563;49.240;9.088;2024-03-08T10:17:08;7.30;99.90
18868;DHT22;9563;49.240;9.088;2024-03-08T10:19:35;7.30;99.90
18868;DHT22;9563;49.240;9.088;2024-03-08T10:22:03;7.40;99.90
18868;DHT22;9563;49.240;9.088;2024-03-08T10:24:30;7.50;99.90
18868;DHT22;9563;49.240;9.088;2024-03-08T10:27:01;7.70;99.90
18868;DHT22;9563;49.240;9.088;2024-03-08T10:29:31;7.90;99.90
18868;DHT22;9563;49.240;9.088;2024-03-08T10:31:58;8.10;99.90
18868;DHT22;9563;49.240;9.088;2024-03-08T10:34:25;8.10;99.90
18868;DHT22;9563;49.240;9.088;2024-03-08T10:36:52;8.20;99.90
18868;DHT22;9563;49.240;9.088;2024-03-08T10:39:22;8.30;99.90
18868;DHT22;9563;49.240;9.088;2024-03-08T10:41:56;8.40;99.90
18868;DHT22;9563;49.240;9.088;2024-03-08T10:44:48;8.40;99.90
18868;DHT22;9563;49.240;9.088;2024-03-08T10:47:19;8.50;99.90
18868;DHT22;9563;49.240;9.088;2024-03-08T10:49:55;8.60;99.90
18868;DHT22;9563;49.240;9.088;2024-03-08T10:52:24;8.90;99.90
18868;DHT22;9563;49.240;9.088;2024-03-08T10:54:52;8.90;99.90
18868;DHT22;9563;49.240;9.088;2024-03-08T10:57:22;9.10;99.90
18868;DHT22;9563;49.240;9.088;2024-03-08T10:59:53;9.10;99.90
18868;DHT22;9563;49.240;9.088;2024-03-08T11:02:20;9.00;99.90
18868;DHT22;9563;49.240;9.088;2024-03-08T11:04:47;9.00;99.90
18868;DHT22;9563;49.240;9.088;2024-03-08T11:07:15;9.00;99.90
18868;DHT22;9563;49.240;9.088;2024-03-08T11:09:47;9.60;99.90
18868;DHT22;9563;49.240;9.088;2024-03-08T11:12:22;10.20;99.90
18868;DHT22;9563;49.240;9.088;2024-03-08T11:14:53;10.90;99.90
18868;DHT22;9563;49.240;9.088;2024-03-08T11:17:22;11.50;99.90
18868;DHT22;9563;49.240;9.088;2024-03-08T11:19:55;11.70;99.90
18868;DHT22;9563;49.240;9.088;2024-03-08T11:22:26;11.80;99.90
18868;DHT22;9563;49.240;9.088;2024-03-08T11:24:58;12.10;99.90
18868;DHT22;9563;49.240;9.088;2024-03-08T11:27:29;12.70;99.90
18868;DHT22;9563;49.240;9.088;2024-03-08T11:30:02;13.20;99.90
18868;DHT22;9563;49.240;9.088;2024-03-08T11:32:36;13.20;99.90
18868;DHT22;9563;49.240;9.088;2024-03-08T11:35:06;12.80;99.90
18868;DHT22;9563;49.240;9.088;2024-03-08T11:37:34;12.80;99.90
18868;DHT22;9563;49.240;9.088;2024-03-08T11:40:01;12.80;99.90
18868;DHT22;9563;49.240;9.088;2024-03-08T11:42:30;12.50;99.90
18868;DHT22;9563;49.240;9.088;2024-03-08T11:44:57;12.30;99.90
18868;DHT22;9563;49.240;9.088;2024-03-08T11:47:25;12.00;99.90
18868;DHT22;9563;49.240;9.088;2024-03-08T11:49:53;11.80;99.90
18868;DHT22;9563;49.240;9.088;2024-03-08T11:52:19;12.20;99.90
18868;DHT22;9563;49.240;9.088;2024-03-08T11:54:52;12.40;99.90
18868;DHT22;9563;49.240;9.088;2024-03-08T11:57:22;12.50;99.90
18868;DHT22;9563;49.240;9.088;2024-03-08T11:59:50;12.60;99.90
18868;DHT22;9563;49.240;9.088;2024-03-08T12:02:17;12.90;99.90
18868;DHT22;9563;49.240;9.088;2024-03-08T12:04:46;13.00;99.90
18868;DHT22;9563;49.240;9.088;2024-03-08T12:07:13;13.10;99.90
18868;DHT22;9563;49.240;9.088;2024-03-08T12:09:40;13.50;99.90
18868;DHT22;9563;49.240;9.088;2024-03-08T12:12:12;13.40;99.90
18868;DHT22;9563;49.240;9.088;2024-03-08T12:14:39;13.70;99.90
18868;DHT22;9563;49.240;9.088;2024-03-08T12:17:09;13.70;99.60
18868;DHT22;9563;49.240;9.088;2024-03-08T12:19:36;13.90;99.50
18868;DHT22;9563;49.240;9.088;2024-03-08T12:22:09;13.60;98.70
18868;DHT22;9563;49.240;9.088;2024-03-08T12:24:36;13.80;98.50
18868;DHT22;9563;49.240;9.088;2024-03-08T12:27:18;13.80;99.30
18868;DHT22;9563;49.240;9.088;2024-03-08T12:29:45;13.80;98.90
18868;DHT22;9563;49.240;9.088;2024-03-08T12:32:12;14.10;98.20
18868;DHT22;9563;49.240;9.088;2024-03-08T12:34:40;14.30;97.80
18868;DHT22;9563;49.240;9.088;2024-03-08T12:37:06;14.60;96.60
18868;DHT22;9563;49.240;9.088;2024-03-08T12:39:36;14.60;96.00
18868;DHT22;9563;49.240;9.088;2024-03-08T12:42:03;14.80;96.40
18868;DHT22;9563;49.240;9.088;2024-03-08T12:44:31;15.00;95.90
18868;DHT22;9563;49.240;9.088;2024-03-08T12:46:58;15.10;94.60
18868;DHT22;9563;49.240;9.088;2024-03-08T12:49:25;15.00;94.50
18868;DHT22;9563;49.240;9.088;2024-03-08T12:51:52;15.10;94.50
18868;DHT22;9563;49.240;9.088;2024-03-08T12:54:19;15.30;93.50
18868;DHT22;9563;49.240;9.088;2024-03-08T12:56:50;15.20;92.90
18868;DHT22;9563;49.240;9.088;2024-03-08T12:59:19;15.20;93.10
18868;DHT22;9563;49.240;9.088;2024-03-08T13:01:47;15.40;93.60
18868;DHT22;9563;49.240;9.088;2024-03-08T13:04:14;15.30;92.20
18868;DHT22;9563;49.240;9.088;2024-03-08T13:06:41;15.50;93.20
18868;DHT22;9563;49.240;9.088;2024-03-08T13:09:08;15.50;93.10
18868;DHT22;9563;49.240;9.088;2024-03-08T13:11:35;15.60;92.00
18868;DHT22;9563;49.240;9.088;2024-03-08T13:14:04;15.60;92.40
18868;DHT22;9563;49.240;9.088;2024-03-08T13:16:32;15.70;92.50
18868;DHT22;9563;49.240;9.088;2024-03-08T13:19:00;15.80;93.20
18868;DHT22;9563;49.240;9.088;2024-03-08T13:21:27;15.80;92.30
18868;DHT22;9563;49.240;9.088;2024-03-08T13:23:55;15.70;91.70
18868;DHT22;9563;49.240;9.088;2024-03-08T13:26:24;15.70;90.90
18868;DHT22;9563;49.240;9.088;2024-03-08T13:28:56;15.40;90.70
18868;DHT22;9563;49.240;9.088;2024-03-08T13:31:25;15.40;91.70
18868;DHT22;9563;49.240;9.088;2024-03-08T13:33:54;15.50;91.20
18868;DHT22;9563;49.240;9.088;2024-03-08T13:36:23;15.40;92.00
18868;DHT22;9563;49.240;9.088;2024-03-08T13:38:54;15.60;92.80
18868;DHT22;9563;49.240;9.088;2024-03-08T13:41:21;15.60;90.80
18868;DHT22;9563;49.240;9.088;2024-03-08T13:43:50;15.70;90.70
18868;DHT22;9563;49.240;9.088;2024-03-08T13:46:17;15.70;91.30
18868;DHT22;9563;49.240;9.088;2024-03-08T13:48:45;15.80;91.70
18868;DHT22;9563;49.240;9.088;2024-03-08T13:51:13;15.70;91.30
18868;DHT22;9563;49.240;9.088;2024-03-08T13:53:41;15.90;92.00
18868;DHT22;9563;49.240;9.088;2024-03-08T13:56:08;16.00;91.80
18868;DHT22;9563;49.240;9.088;2024-03-08T13:58:36;15.90;90.60
18868;DHT22;9563;49.240;9.088;2024-03-08T14:01:03;15.50;90.40
18868;DHT22;9563;49.240;9.088;2024-03-08T14:03:36;15.30;91.00
18868;DHT22;9563;49.240;9.088;2024-03-08T14:06:05;15.10;90.80
18868;DHT22;9563;49.240;9.088;2024-03-08T14:08:32;15.20;91.90
18868;DHT22;9563;49.240;9.088;2024-03-08T14:10:59;15.10;90.70
18868;DHT22;9563;49.240;9.088;2024-03-08T14:13:36;15.20;91.90
18868;DHT22;9563;49.240;9.088;2024-03-08T14:16:03;15.30;92.00
18868;DHT22;9563;49.240;9.088;2024-03-08T14:18:30;15.30;91.60
18868;DHT22;9563;49.240;9.088;2024-03-08T14:21:00;15.60;91.80
18868;DHT22;9563;49.240;9.088;2024-03-08T14:23:28;15.80;91.40
18868;DHT22;9563;49.240;9.088;2024-03-08T14:25:55;15.80;89.90
18868;DHT22;9563;49.240;9.088;2024-03-08T14:28:24;15.80;90.90
18868;DHT22;9563;49.240;9.088;2024-03-08T14:30:52;15.90;90.20
18868;DHT22;9563;49.240;9.088;2024-03-08T14:33:19;15.80;89.60
18868;DHT22;9563;49.240;9.088;2024-03-08T14:35:46;15.70;90.50
18868;DHT22;9563;49.240;9.088;2024-03-08T14:38:15;15.70;90.90
18868;DHT22;9563;49.240;9.088;2024-03-08T14:40:44;15.80;91.70
18868;DHT22;9563;49.240;9.088;2024-03-08T14:43:12;15.80;90.10
18868;DHT22;9563;49.240;9.088;2024-03-08T14:45:40;15.60;90.40
18868;DHT22;9563;49.240;9.088;2024-03-08T14:48:07;15.60;90.90
18868;DHT22;9563;49.240;9.088;2024-03-08T14:50:37;15.50;90.00
18868;DHT22;9563;49.240;9.088;2024-03-08T14:53:04;15.50;90.20
18868;DHT22;9563;49.240;9.088;2024-03-08T14:55:32;15.40;90.10
18868;DHT22;9563;49.240;9.088;2024-03-08T14:58:01;15.60;90.40
18868;DHT22;9563;49.240;9.088;2024-03-08T15:00:29;15.60;89.30
18868;DHT22;9563;49.240;9.088;2024-03-08T15:03:00;15.60;89.30
18868;DHT22;9563;49.240;9.088;2024-03-08T15:05:27;15.30;88.50
18868;DHT22;9563;49.240;9.088;2024-03-08T15:07:57;15.30;89.60
18868;DHT22;9563;49.240;9.088;2024-03-08T15:10:26;15.10;88.70
18868;DHT22;9563;49.240;9.088;2024-03-08T15:12:55;15.00;89.60
18868;DHT22;9563;49.240;9.088;2024-03-08T15:15:25;14.80;90.00
18868;DHT22;9563;49.240;9.088;2024-03-08T15:17:52;14.80;90.60
18868;DHT22;9563;49.240;9.088;2024-03-08T15:20:22;14.80;91.20
18868;DHT22;9563;49.240;9.088;2024-03-08T15:22:51;14.80;90.80
18868;DHT22;9563;49.240;9.088;2024-03-08T15:25:20;14.70;90.90
18868;DHT22;9563;49.240;9.088;2024-03-08T15:27:51;14.60;91.60
18868;DHT22;9563;49.240;9.088;2024-03-08T15:30:18;14.60;91.60
18868;DHT22;9563;49.240;9.088;2024-03-08T15:32:49;14.70;91.50
18868;DHT22;9563;49.240;9.088;2024-03-08T15:35:17;14.50;91.50
18868;DHT22;9563;49.240;9.088;2024-03-08T15:37:44;14.50;91.30
18868;DHT22;9563;49.240;9.088;2024-03-08T15:40:12;14.30;91.70
18868;DHT22;9563;49.240;9.088;2024-03-08T15:42:54;14.30;91.90
18868;DHT22;9563;49.240;9.088;2024-03-08T15:45:21;14.20;91.70
18868;DHT22;9563;49.240;9.088;2024-03-08T15:47:50;14.00;91.80
18868;DHT22;9563;49.240;9.088;2024-03-08T15:50:17;13.90;92.00
18868;DHT22;9563;49.240;9.088;2024-03-08T15:52:48;13.80;92.50
18868;DHT22;9563;49.240;9.088;2024-03-08T15:55:15;13.80;92.40
18868;DHT22;9563;49.240;9.088;2024-03-08T15:57:45;13.80;92.90
18868;DHT22;9563;49.240;9.088;2024-03-08T16:00:15;13.80;92.80
18868;DHT22;9563;49.240;9.088;2024-03-08T16:03:00;13.70;92.80
18868;DHT22;9563;49.240;9.088;2024-03-08T16:05:32;13.70;92.80
18868;DHT22;9563;49.240;9.088;2024-03-08T16:07:59;13.70;93.00
18868;DHT22;9563;49.240;9.088;2024-03-08T16:10:26;13.70;93.80
18868;DHT22;9563;49.240;9.088;2024-03-08T16:12:54;13.60;93.20
18868;DHT22;9563;49.240;9.088;2024-03-08T16:15:21;13.60;93.40
18868;DHT22;9563;49.240;9.088;2024-03-08T16:17:48;13.50;93.70
18868;DHT22;9563;49.240;9.088;2024-03-08T16:20:16;13.40;93.10
18868;DHT22;9563;49.240;9.088;2024-03-08T16:22:43;13.30;93.20
18868;DHT22;9563;49.240;9.088;2024-03-08T16:25:11;13.20;93.60
18868;DHT22;9563;49.240;9.088;2024-03-08T16:27:40;13.20;93.80
18868;DHT22;9563;49.240;9.088;2024-03-08T16:30:08;13.00;93.70
18868;DHT22;9563;49.240;9.088;2024-03-08T16:32:42;13.00;94.20
18868;DHT22;9563;49.240;9.088;2024-03-08T16:35:10;13.00;94.60
18868;DHT22;9563;49.240;9.088;2024-03-08T16:37:39;13.00;94.40
18868;DHT22;9563;49.240;9.088;2024-03-08T16:40:08;13.00;94.90
18868;DHT22;9563;49.240;9.088;2024-03-08T16:42:42;13.10;94.70
18868;DHT22;9563;49.240;9.088;2024-03-08T16:45:09;13.10;94.60
18868;DHT22;9563;49.240;9.088;2024-03-08T16:47:36;13.20;94.80
18868;DHT22;9563;49.240;9.088;2024-03-08T16:50:04;13.20;94.30
18868;DHT22;9563;49.240;9.088;2024-03-08T16:52:33;13.30;94.90
18868;DHT22;9563;49.240;9.088;2024-03-08T16:55:02;13.20;94.50
18868;DHT22;9563;49.240;9.088;2024-03-08T16:57:31;13.00;94.30
18868;DHT22;9563;49.240;9.088;2024-03-08T16:59:58;12.80;94.80
18868;DHT22;9563;49.240;9.088;2024-03-08T17:02:25;12.50;95.30
18868;DHT22;9563;49.240;9.088;2024-03-08T17:04:52;12.20;95.90
18868;DHT22;9563;49.240;9.088;2024-03-08T17:07:19;11.90;96.40
18868;DHT22;9563;49.240;9.088;2024-03-08T17:09:48;11.70;97.20
18868;DHT22;9563;49.240;9.088;2024-03-08T17:12:16;11.60;97.70
18868;DHT22;9563;49.240;9.088;2024-03-08T17:14:46;11.40;98.20
18868;DHT22;9563;49.240;9.088;2024-03-08T17:17:12;11.20;99.00
18868;DHT22;9563;49.240;9.088;2024-03-08T17:19:40;11.20;99.50
18868;DHT22;9563;49.240;9.088;2024-03-08T17:22:07;11.10;99.80
18868;DHT22;9563;49.240;9.088;2024-03-08T17:24:35;11.00;99.90
18868;DHT22;9563;49.240;9.088;2024-03-08T17:27:02;10.90;99.90
18868;DHT22;9563;49.240;9.088;2024-03-08T17:29:30;10.80;99.90
18868;DHT22;9563;49.240;9.088;2024-03-08T17:31:57;10.70;99.90
18868;DHT22;9563;49.240;9.088;2024-03-08T17:34:24;10.80;99.90
18868;DHT22;9563;49.240;9.088;2024-03-08T17:36:53;10.80;99.90
18868;DHT22;9563;49.240;9.088;2024-03-08T17:39:23;10.70;99.90
18868;DHT22;9563;49.240;9.088;2024-03-08T17:41:54;10.60;99.90
18868;DHT22;9563;49.240;9.088;2024-03-08T17:44:22;10.60;99.90
18868;DHT22;9563;49.240;9.088;2024-03-08T17:46:50;10.50;99.90
18868;DHT22;9563;49.240;9.088;2024-03-08T17:49:18;10.40;99.90
18868;DHT22;9563;49.240;9.088;2024-03-08T17:51:47;10.30;99.90
18868;DHT22;9563;49.240;9.088;2024-03-08T17:54:15;10.20;99.90
18868;DHT22;9563;49.240;9.088;2024-03-08T17:56:42;10.10;99.90
18868;DHT22;9563;49.240;9.088;2024-03-08T17:59:09;10.10;99.90
18868;DHT22;9563;49.240;9.088;2024-03-08T18:01:38;10.00;99.90
18868;DHT22;9563;49.240;9.088;2024-03-08T18:04:07;9.90;99.90
18868;DHT22;9563;49.240;9.088;2024-03-08T18:06:34;9.90;99.90
18868;DHT22;9563;49.240;9.088;2024-03-08T18:09:03;9.80;99.90
18868;DHT22;9563;49.240;9.088;2024-03-08T18:11:35;9.80;99.90
18868;DHT22;9563;49.240;9.088;2024-03-08T18:14:02;9.80;99.90
18868;DHT22;9563;49.240;9.088;2024-03-08T18:16:34;9.70;99.90
18868;DHT22;9563;49.240;9.088;2024-03-08T18:19:04;9.60;99.90
18868;DHT22;9563;49.240;9.088;2024-03-08T18:21:34;9.60;99.90
18868;DHT22;9563;49.240;9.088;2024-03-08T18:24:03;9.60;99.90
18868;DHT22;9563;49.240;9.088;2024-03-08T18:26:30;9.50;99.90
18868;DHT22;9563;49.240;9.088;2024-03-08T18:28:59;9.60;99.90
18868;DHT22;9563;49.240;9.088;2024-03-08T18:31:30;9.50;99.90
18868;DHT22;9563;49.240;9.088;2024-03-08T18:33:57;9.50;99.90
18868;DHT22;9563;49.240;9.088;2024-03-08T18:36:25;9.50;99.90
18868;DHT22;9563;49.240;9.088;2024-03-08T18:38:53;9.50;99.90
18868;DHT22;9563;49.240;9.088;2024-03-08T18:41:22;9.40;99.90
18868;DHT22;9563;49.240;9.088;2024-03-08T18:43:53;9.40;99.90
18868;DHT22;9563;49.240;9.088;2024-03-08T18:46:20;9.40;99.90
18868;DHT22;9563;49.240;9.088;2024-03-08T18:48:47;9.40;99.90
18868;DHT22;9563;49.240;9.088;2024-03-08T18:51:15;9.30;99.90
18868;DHT22;9563;49.240;9.088;2024-03-08T18:53:42;9.30;99.90
18868;DHT22;9563;49.240;9.088;2024-03-08T18:56:10;9.20;99.90
18868;DHT22;9563;49.240;9.088;2024-03-08T18:58:39;9.20;99.90
18868;DHT22;9563;49.240;9.088;2024-03-08T19:01:06;9.20;99.90
18868;DHT22;9563;49.240;9.088;2024-03-08T19:03:33;9.10;99.90
18868;DHT22;9563;49.240;9.088;2024-03-08T19:06:03;9.10;99.90
18868;DHT22;9563;49.240;9.088;2024-03-08T19:08:31;9.10;99.90
18868;DHT22;9563;49.240;9.088;2024-03-08T19:10:58;9.00;99.90
18868;DHT22;9563;49.240;9.088;2024-03-08T19:13:26;9.00;99.90
18868;DHT22;9563;49.240;9.088;2024-03-08T19:15:53;9.00;99.90
18868;DHT22;9563;49.240;9.088;2024-03-08T19:18:20;9.00;99.90
18868;DHT22;9563;49.240;9.088;2024-03-08T19:20:47;9.00;99.90
18868;DHT22;9563;49.240;9.088;2024-03-08T19:23:14;8.90;99.90
18868;DHT22;9563;49.240;9.088;2024-03-08T19:25:41;8.80;99.90
18868;DHT22;9563;49.240;9.088;2024-03-08T19:28:09;8.80;99.90
18868;DHT22;9563;49.240;9.088;2024-03-08T19:30:40;8.80;99.90
18868;DHT22;9563;49.240;9.088;2024-03-08T19:33:07;8.70;99.90
18868;DHT22;9563;49.240;9.088;2024-03-08T19:35:37;8.70;99.90
18868;DHT22;9563;49.240;9.088;2024-03-08T19:38:04;8.70;99.90
18868;DHT22;9563;49.240;9.088;2024-03-08T19:40:33;8.70;99.90
18868;DHT22;9563;49.240;9.088;2024-03-08T19:43:03;8.60;99.90
18868;DHT22;9563;49.240;9.088;2024-03-08T19:45:34;8.70;99.90
18868;DHT22;9563;49.240;9.088;2024-03-08T19:48:03;8.60;99.90
18868;DHT22;9563;49.240;9.088;2024-03-08T19:50:33;8.60;99.90
18868;DHT22;9563;49.240;9.088;2024-03-08T19:53:07;8.50;99.90
18868;DHT22;9563;49.240;9.088;2024-03-08T19:55:35;8.50;99.90
18868;DHT22;9563;49.240;9.088;2024-03-08T19:58:04;8.50;99.90
18868;DHT22;9563;49.240;9.088;2024-03-08T20:00:32;8.40;99.90
18868;DHT22;9563;49.240;9.088;2024-03-08T20:03:00;8.30;99.90
18868;DHT22;9563;49.240;9.088;2024-03-08T20:05:29;8.20;99.90
18868;DHT22;9563;49.240;9.088;2024-03-08T20:07:58;8.20;99.90
18868;DHT22;9563;49.240;9.088;2024-03-08T20:10:30;8.10;99.90
18868;DHT22;9563;49.240;9.088;2024-03-08T20:12:57;8.10;99.90
18868;DHT22;9563;49.240;9.088;2024-03-08T20:15:24;8.00;99.90
18868;DHT22;9563;49.240;9.088;2024-03-08T20:17:52;7.90;99.90
18868;DHT22;9563;49.240;9.088;2024-03-08T20:20:19;7.80;99.90
18868;DHT22;9563;49.240;9.088;2024-03-08T20:22:49;7.80;99.90
18868;DHT22;9563;49.240;9.088;2024-03-08T20:25:17;7.80;99.90
18868;DHT22;9563;49.240;9.088;2024-03-08T20:27:47;7.80;99.90
18868;DHT22;9563;49.240;9.088;2024-03-08T20:30:17;7.70;99.90
18868;DHT22;9563;49.240;9.088;2024-03-08T20:32:48;7.70;99.90
18868;DHT22;9563;49.240;9.088;2024-03-08T20:35:15;7.60;99.90
18868;DHT22;9563;49.240;9.088;2024-03-08T20:37:45;7.60;99.90
18868;DHT22;9563;49.240;9.088;2024-03-08T20:40:13;7.70;99.90
18868;DHT22;9563;49.240;9.088;2024-03-08T20:42:41;7.60;99.90
18868;DHT22;9563;49.240;9.088;2024-03-08T20:45:09;7.70;99.90
18868;DHT22;9563;49.240;9.088;2024-03-08T20:47:40;7.80;99.90
18868;DHT22;9563;49.240;9.088;2024-03-08T20:50:09;7.70;99.90
18868;DHT22;9563;49.240;9.088;2024-03-08T20:52:38;7.80;99.90
18868;DHT22;9563;49.240;9.088;2024-03-08T20:55:05;7.80;99.90
18868;DHT22;9563;49.240;9.088;2024-03-08T20:57:37;7.80;99.90
18868;DHT22;9563;49.240;9.088;2024-03-08T21:00:06;7.80;99.90
18868;DHT22;9563;49.240;9.088;2024-03-08T21:02:34;7.70;99.90